createdAt,value
2022-12-09T00:04:38.625Z,5.27
2022-12-09T00:14:38.465Z,5.30
2022-12-09T00:24:38.642Z,5.31
2022-12-09T00:34:40.071Z,5.32
2022-12-09T00:44:40.521Z,5.35
2022-12-09T00:54:41.474Z,5.38
2022-12-09T01:04:41.802Z,5.39
2022-12-09T01:14:42.655Z,5.39
2022-12-09T01:24:42.657Z,5.37
2022-12-09T01:34:42.518Z,5.34
2022-12-09T01:44:42.622Z,5.29
2022-12-09T01:54:42.632Z,5.24
2022-12-09T02:04:44.606Z,5.21
2022-12-09T02:14:46.087Z,5.14
2022-12-09T02:24:47.105Z,5.06
2022-12-09T02:34:48.279Z,4.95
2022-12-09T02:44:48.906Z,4.84
2022-12-09T02:54:49.462Z,4.78
2022-12-09T03:04:49.938Z,4.74
2022-12-09T03:14:50.789Z,4.70
2022-12-09T03:24:51.010Z,4.67
2022-12-09T03:34:50.735Z,4.66
2022-12-09T03:44:50.681Z,4.65
2022-12-09T03:54:50.818Z,4.66
2022-12-09T04:04:51.228Z,4.68
2022-12-09T04:14:52.001Z,4.74
2022-12-09T04:24:53.046Z,4.73
2022-12-09T04:34:54.306Z,4.63
2022-12-09T04:44:55.051Z,4.51
2022-12-09T04:54:54.739Z,4.45
2022-12-09T05:04:54.997Z,4.46
2022-12-09T05:14:55.847Z,4.53
2022-12-09T05:24:56.019Z,4.59
2022-12-09T05:34:55.916Z,4.63
2022-12-09T05:44:56.450Z,4.64
2022-12-09T05:54:56.962Z,4.57
2022-12-09T06:04:58.040Z,4.36
2022-12-09T06:14:57.878Z,4.00
2022-12-09T06:24:57.917Z,3.51
2022-12-09T06:34:58.198Z,3.05
2022-12-09T06:44:58.882Z,2.66
2022-12-09T06:54:59.325Z,2.35
2022-12-09T07:05:00.157Z,2.11
2022-12-09T07:15:01.341Z,1.87
2022-12-09T07:25:02.175Z,1.73
2022-12-09T07:35:03.234Z,1.61
2022-12-09T07:45:04.032Z,1.54
2022-12-09T07:55:05.532Z,1.53
2022-12-09T08:05:07.047Z,1.53
2022-12-09T08:15:08.365Z,1.62
2022-12-09T08:25:09.886Z,1.82
2022-12-09T08:35:12.759Z,2.11
2022-12-09T08:45:13.218Z,2.54
2022-12-09T08:55:13.382Z,3.05
2022-12-09T09:05:14.543Z,3.58
2022-12-09T09:15:17.532Z,4.12
2022-12-09T09:25:21.190Z,4.64
2022-12-09T09:35:21.469Z,5.07
2022-12-09T09:45:25.565Z,5.43
2022-12-09T09:55:26.533Z,5.78
2022-12-09T10:05:27.333Z,6.07
2022-12-09T10:15:28.556Z,6.40
2022-12-09T10:25:29.305Z,6.78
2022-12-09T10:35:29.787Z,7.10
2022-12-09T10:45:52.694Z,7.32
2022-12-09T10:55:32.247Z,7.54
2022-12-09T11:05:33.742Z,7.65
2022-12-09T11:15:34.771Z,7.55
2022-12-09T11:25:35.361Z,7.45
2022-12-09T11:35:34.957Z,7.64
2022-12-09T11:45:35.203Z,8.07
2022-12-09T11:55:35.250Z,8.41
2022-12-09T12:05:35.328Z,8.68
2022-12-09T12:15:35.287Z,8.88
2022-12-09T12:25:35.254Z,8.85
2022-12-09T12:35:35.478Z,8.65
2022-12-09T12:45:55.109Z,8.43
2022-12-09T12:55:55.317Z,8.09
2022-12-09T13:05:55.264Z,7.62
2022-12-09T13:15:55.433Z,6.99
2022-12-09T13:25:56.600Z,6.39
2022-12-09T13:35:56.307Z,5.96
2022-12-09T13:45:56.427Z,5.69
2022-12-09T13:55:56.356Z,5.49
2022-12-09T14:05:56.364Z,5.33
2022-12-09T14:15:56.375Z,5.18
2022-12-09T14:25:56.374Z,5.03
2022-12-09T14:35:56.675Z,4.82
2022-12-09T14:45:57.804Z,4.58
2022-12-09T14:56:00.669Z,4.32
2022-12-09T15:06:02.648Z,4.01
2022-12-09T15:16:02.505Z,3.65
2022-12-09T15:26:02.475Z,3.28
2022-12-09T15:36:02.490Z,2.89
2022-12-09T15:46:02.510Z,2.52
2022-12-09T15:56:05.356Z,2.21
2022-12-09T16:06:05.519Z,1.95
2022-12-09T16:16:05.605Z,1.76
2022-12-09T16:26:07.860Z,1.64
2022-12-09T16:36:09.651Z,1.58
2022-12-09T16:46:09.577Z,1.54
2022-12-09T16:56:09.596Z,1.59
2022-12-09T17:06:09.676Z,1.68
2022-12-09T17:16:09.696Z,1.65
2022-12-09T17:26:09.767Z,1.48
2022-12-09T17:36:10.221Z,1.26
2022-12-09T17:46:10.637Z,1.08
2022-12-09T17:56:10.615Z,0.96
2022-12-09T18:06:10.650Z,0.87
2022-12-09T18:16:10.756Z,0.69
2022-12-09T18:26:10.626Z,0.53
2022-12-09T18:36:10.697Z,0.46
2022-12-09T18:46:10.837Z,0.44
2022-12-09T18:56:10.706Z,0.45
2022-12-09T19:06:10.732Z,0.53
2022-12-09T19:16:10.798Z,0.74
2022-12-09T19:26:10.718Z,1.00
2022-12-09T19:36:10.849Z,1.22
2022-12-09T19:46:10.784Z,1.38
2022-12-09T19:56:10.759Z,1.50
2022-12-09T20:06:10.860Z,1.57
2022-12-09T20:16:10.821Z,1.56
2022-12-09T20:26:10.836Z,1.61
2022-12-09T20:36:10.864Z,1.76
2022-12-09T20:46:10.855Z,1.93
2022-12-09T20:56:10.837Z,2.07
2022-12-09T21:06:10.980Z,2.17
2022-12-09T21:16:11.942Z,2.19
2022-12-09T21:26:11.956Z,2.17
2022-12-09T21:36:13.729Z,2.16
2022-12-09T21:46:14.146Z,2.10
2022-12-09T21:56:15.287Z,1.92
2022-12-09T22:06:15.875Z,1.64
2022-12-09T22:16:16.058Z,1.33
2022-12-09T22:26:15.959Z,1.02
2022-12-09T22:36:15.935Z,0.73
2022-12-09T22:46:15.990Z,0.46
2022-12-09T22:56:16.218Z,0.24
2022-12-09T23:06:15.973Z,0.11
2022-12-09T23:16:16.177Z,0.00
2022-12-09T23:26:15.944Z,-0.09
2022-12-09T23:36:16.014Z,-0.15
2022-12-09T23:46:16.455Z,-0.18
2022-12-09T23:56:17.913Z,-0.22
